map of DIL home
DIL - Airport
Location
City:  Dili, Díli, Timor-Leste (East Timor)
Name:Presidente Nicolau Lobato International Airport
Old (Alt.):Komoro International Airport
ICAO:WPDL
IATA:DIL

Details
Type:Airport (Aerodrome, Airfield)
Use:Public/Civil, International (customs port of entry)
Latitude:8°32'47"S (-8.546416)
Longitude:125°31'29"E (125.524833)
Elevation:25 ft (8 m)
Variation:1.40°E (WMM2015 magnetic declination)
-0.10° annual change
Runways:1
Longest:6070 × 98 ft (1850 × 30 m), paved

Time
Time Zone:UTC+9
Local Time:

Weather
TAF:WPDL 180246Z 1803/1812 28010KT 9999 SCT020 PROB30
TEMPO 1805/1812 VRB20G35KT 1000 TSRA BKN010 SCT020CB

Related Locations
Nearby:
Farthest:ORG: 12237 mi / 19693 km
Paramaribo [Zorg en Hoop], PM, SR

Find:

   beyond  
but within

Other Information
Maps:
NOTAMs:
Links:
Sources:

  
  • flag of Timor-Leste (East Timor)
  • flag of Díli
  

Airport Diagram

Airport diagram for DIL

Airport diagram PDF

Sectional Chart

Flight Planning
at skyvector.com

Satellite Image

Google Maps Satellite view

 

Copyright © 2004-2019 Karl L. Swartz. All rights reserved.
The Great Circle Mapper name and logo are trademarks of the Great Circle Mapper.
All other trademarks mentioned herein belong to their respective owners.
Please see credits for attibutions and further copyright information.

  Follow gcmap on Facebook Follow gcmap on Twitter Follow gcmap on Google+ GCmap on LinkedIn

hCard Microformat

Geo Microformat